Terminal Aerodrome Forecast
Issued by NWS Jacksonville, FL

Home | Current Version | Previous Version | Text Only | Print | Product List | Glossary On
Versions: 1 2 3 4 5 6 7 8 9 10 11 12 13 14 15 16 17 18 19 20 21 22 23 24 25 26 27 28 29 30 31 32 33 34 35
000
FTUS42 KJAX 260500
TAFJAX
TAF
KJAX 260525Z 2606/2706 34007KT 3SM -RA BR OVC004
     FM260900 32012KT 4SM -RA BR OVC007
     FM261400 32015G25KT P6SM VCSH SCT007 BKN015
     FM261900 29012G20KT P6SM SCT025 SCT250
     FM262300 28007KT P6SM SKC=

USA.gov is the U.S. government's official web portal to all federal, state and local government web resources and services.